Liberty of The Seas — C6VQ8 — position and weather

sailwx.info

Track history (hours):
 
Tides and Currents Weather Stations Pressure Air Temp Water Temp Dewpoint Dewpoint Depression Visibility Wind Speed Wind Dir Waves Ship Positions

Liberty of The Seas

Last reported at 2015-Aug-28 16:27 UTC. Time now 2015-Aug-30 03:34 UTC.
Position N 40°25' W 069°30'.

Type: Passenger vessel. MMSI: 309436000.

Date/timePositionNaut miles runAvg speedWind from/ knotsBaromVisibWave heightAir tempDewpointWater temp
2015-Aug-28 16:27N 40°25' W 069°30'1010.6
2015-Aug-28 15:28N 40°24' W 069°43'2110.4
2015-Aug-28 13:28N 40°26' W 070°11'1010.6
2015-Aug-28 12:32N 40°26' W 070°24'1010.5
2015-Aug-28 11:33N 40°25' W 070°37'1110.6
2015-Aug-28 10:33N 40°25' W 070°51'1110.7
2015-Aug-28 09:33N 40°25' W 071°05'1110.7
2015-Aug-28 08:33N 40°25' W 071°19'1110.6
2015-Aug-28 07:33N 40°25' W 071°33'1110.8
2015-Aug-28 06:33N 40°24' W 071°47'1110.6
2015-Aug-28 05:33N 40°24' W 072°01'1110.7
2015-Aug-28 04:33N 40°24' W 072°15'1110.5
2015-Aug-28 03:33N 40°24' W 072°29'1010.2
2015-Aug-28 02:33N 40°23' W 072°42'1110.6
2015-Aug-28 01:33N 40°23' W 072°56'4410.9
2015-Aug-27 21:33N 40°29' W 073°53'1313.1
2015-Aug-27 20:33N 40°39' W 074°03'1 1.0
2015-Aug-27 19:33N 40°40' W 074°04'0 0.0
2015-Aug-27 18:33N 40°40' W 074°04'0 0.0
2015-Aug-27 17:33N 40°40' W 074°04'0 0.0
2015-Aug-27 16:33N 40°40' W 074°04'0 0.0
2015-Aug-27 15:33N 40°40' W 074°04'0 0.0
2015-Aug-27 14:33N 40°40' W 074°04'0 0.0
2015-Aug-27 13:33N 40°40' W 074°04'0 0.0
2015-Aug-27 12:33N 40°40' W 074°04'0 0.0
2015-Aug-27 11:33N 40°40' W 074°04'2 1.7
2015-Aug-27 10:33N 40°38' W 074°03'1413.8
2015-Aug-27 09:32N 40°28' W 073°51'1616.6
2015-Aug-27 08:33N 40°19' W 073°34'2019.5
2015-Aug-27 07:33N 40°06' W 073°14'1919.5
2015-Aug-27 06:34N 39°52' W 072°57'1919.4
2015-Aug-27 05:33N 39°37' W 072°40'  
2015-Aug-23 06:33N 38°25' W 071°23'1918.4
2015-Aug-23 05:32N 38°39' W 071°40'1918.5
2015-Aug-23 04:30N 38°53' W 071°56'1818.6
2015-Aug-23 03:31N 39°06' W 072°13'1818.6
2015-Aug-23 02:33N 39°19' W 072°28'1818.5
2015-Aug-23 01:34N 39°32' W 072°45'1818.3
2015-Aug-23 00:33N 39°46' W 073°00'1818.3
2015-Aug-22 23:33N 39°59' W 073°17'1918.6
2015-Aug-22 22:33N 40°13' W 073°34'1717.1
2015-Aug-22 21:34N 40°25' W 073°49'1413.9
2015-Aug-22 20:33N 40°35' W 074°02'5 5.2
2015-Aug-22 19:32N 40°40' W 074°04'0 0.0
2015-Aug-22 18:32N 40°40' W 074°04'0 0.0
2015-Aug-22 17:32N 40°40' W 074°04'0 0.0
2015-Aug-22 16:32N 40°40' W 074°04'0 0.0
2015-Aug-22 15:32N 40°40' W 074°04'0 0.0
2015-Aug-22 14:32N 40°40' W 074°04'0 0.0
2015-Aug-22 13:32N 40°40' W 074°04'0 0.0
2015-Aug-22 12:32N 40°40' W 074°04'0 0.0
2015-Aug-22 11:32N 40°40' W 074°04'1 1.0
2015-Aug-22 10:33N 40°39' W 074°03'1312.9
2015-Aug-22 09:34N 40°29' W 073°53'1515.1
2015-Aug-22 08:34N 40°15' W 073°45'1818.4
2015-Aug-22 07:34N 39°57' W 073°43'1918.4
2015-Aug-22 06:33N 39°38' W 073°40'1818.2
2015-Aug-22 05:34N 39°20' W 073°39'1918.6
2015-Aug-22 04:33N 39°01' W 073°38'2018.5
2015-Aug-22 03:29N 38°42' W 073°36'2119.0
2015-Aug-22 02:21N 38°20' W 073°34'  
Track history (hours):
 
Tides and Currents Weather Stations Pressure Air Temp Water Temp Dewpoint Dewpoint Depression Visibility Wind Speed Wind Dir Waves Ship Positions

Liberty of The Seas

Last reported at 2015-Aug-28 16:27 UTC. Time now 2015-Aug-30 03:34 UTC.
Position N 40°25' W 069°30'.

Type: Passenger vessel. MMSI: 309436000.

Date/timePositionNaut miles runAvg speedWind from/ knotsBaromVisibWave heightAir tempDewpointWater temp
2015-Aug-28 16:27N 40°25' W 069°30'1010.6
2015-Aug-28 15:28N 40°24' W 069°43'2110.4
2015-Aug-28 13:28N 40°26' W 070°11'1010.6
2015-Aug-28 12:32N 40°26' W 070°24'1010.5
2015-Aug-28 11:33N 40°25' W 070°37'1110.6
2015-Aug-28 10:33N 40°25' W 070°51'1110.7
2015-Aug-28 09:33N 40°25' W 071°05'1110.7
2015-Aug-28 08:33N 40°25' W 071°19'1110.6
2015-Aug-28 07:33N 40°25' W 071°33'1110.8
2015-Aug-28 06:33N 40°24' W 071°47'1110.6
2015-Aug-28 05:33N 40°24' W 072°01'1110.7
2015-Aug-28 04:33N 40°24' W 072°15'1110.5
2015-Aug-28 03:33N 40°24' W 072°29'1010.2
2015-Aug-28 02:33N 40°23' W 072°42'1110.6
2015-Aug-28 01:33N 40°23' W 072°56'4410.9
2015-Aug-27 21:33N 40°29' W 073°53'1313.1
2015-Aug-27 20:33N 40°39' W 074°03'1 1.0
2015-Aug-27 19:33N 40°40' W 074°04'0 0.0
2015-Aug-27 18:33N 40°40' W 074°04'0 0.0
2015-Aug-27 17:33N 40°40' W 074°04'0 0.0
2015-Aug-27 16:33N 40°40' W 074°04'0 0.0
2015-Aug-27 15:33N 40°40' W 074°04'0 0.0
2015-Aug-27 14:33N 40°40' W 074°04'0 0.0
2015-Aug-27 13:33N 40°40' W 074°04'0 0.0
2015-Aug-27 12:33N 40°40' W 074°04'0 0.0
2015-Aug-27 11:33N 40°40' W 074°04'2 1.7
2015-Aug-27 10:33N 40°38' W 074°03'1413.8
2015-Aug-27 09:32N 40°28' W 073°51'1616.6
2015-Aug-27 08:33N 40°19' W 073°34'2019.5
2015-Aug-27 07:33N 40°06' W 073°14'1919.5
2015-Aug-27 06:34N 39°52' W 072°57'1919.4
2015-Aug-27 05:33N 39°37' W 072°40'  
2015-Aug-23 06:33N 38°25' W 071°23'1918.4
2015-Aug-23 05:32N 38°39' W 071°40'1918.5
2015-Aug-23 04:30N 38°53' W 071°56'1818.6
2015-Aug-23 03:31N 39°06' W 072°13'1818.6
2015-Aug-23 02:33N 39°19' W 072°28'1818.5
2015-Aug-23 01:34N 39°32' W 072°45'1818.3
2015-Aug-23 00:33N 39°46' W 073°00'1818.3
2015-Aug-22 23:33N 39°59' W 073°17'1918.6
2015-Aug-22 22:33N 40°13' W 073°34'1717.1
2015-Aug-22 21:34N 40°25' W 073°49'1413.9
2015-Aug-22 20:33N 40°35' W 074°02'5 5.2
2015-Aug-22 19:32N 40°40' W 074°04'0 0.0
2015-Aug-22 18:32N 40°40' W 074°04'0 0.0
2015-Aug-22 17:32N 40°40' W 074°04'0 0.0
2015-Aug-22 16:32N 40°40' W 074°04'0 0.0
2015-Aug-22 15:32N 40°40' W 074°04'0 0.0
2015-Aug-22 14:32N 40°40' W 074°04'0 0.0
2015-Aug-22 13:32N 40°40' W 074°04'0 0.0
2015-Aug-22 12:32N 40°40' W 074°04'0 0.0
2015-Aug-22 11:32N 40°40' W 074°04'1 1.0
2015-Aug-22 10:33N 40°39' W 074°03'1312.9
2015-Aug-22 09:34N 40°29' W 073°53'1515.1
2015-Aug-22 08:34N 40°15' W 073°45'1818.4
2015-Aug-22 07:34N 39°57' W 073°43'1918.4
2015-Aug-22 06:33N 39°38' W 073°40'1818.2
2015-Aug-22 05:34N 39°20' W 073°39'1918.6
2015-Aug-22 04:33N 39°01' W 073°38'2018.5
2015-Aug-22 03:29N 38°42' W 073°36'2119.0
2015-Aug-22 02:21N 38°20' W 073°34'  

Dump ship's entire track history